Inda, Mississippi
Current Conditions -  °F | °C
As of 6:53 AM on Thursday 30 Oct 2014 (Local Time) from KGPT Reporting Station
Clear Clear  
Wind Chill: 55°   Ceiling: Unl
Heat Index: 55°   Visibility: 10mi
Dew Point: 44°   Wind: 8mph
Humidity: 67%   Direction: 10°N
Pressure: 30.08"   Gusts: NA
Location:  30.7239°N, 89.1669°W
Report Text: KGPT 301153Z 01007KT 10SM CLR 13/07 A3008 RMK AO2 SLP184 T01280067 10178 20128 53009
Loading
Personal Weather Stations






























Interactive Weather Map
Tropical Storm Tracking
New forecast layout! Learn more

10-Day Weather Forecast

Advertisements
Track Severe Weather on mobile